sensor_id;sensor_type;location;lat;lon;timestamp;P1;durP1;ratioP1;P2;durP2;ratioP2
42514;SDS011;28144;49.920;18.730;2023-12-07T00:00:36;166.90;;;57.97;;
42514;SDS011;28144;49.920;18.730;2023-12-07T00:03:22;192.65;;;69.07;;
42514;SDS011;28144;49.920;18.730;2023-12-07T00:05:48;132.50;;;49.27;;
42514;SDS011;28144;49.920;18.730;2023-12-07T00:08:14;189.87;;;69.90;;
42514;SDS011;28144;49.920;18.730;2023-12-07T00:10:39;188.03;;;68.37;;
42514;SDS011;28144;49.920;18.730;2023-12-07T00:13:05;164.55;;;61.25;;
42514;SDS011;28144;49.920;18.730;2023-12-07T00:15:31;170.20;;;59.47;;
42514;SDS011;28144;49.920;18.730;2023-12-07T00:17:57;160.27;;;57.37;;
42514;SDS011;28144;49.920;18.730;2023-12-07T00:20:23;147.97;;;54.97;;
42514;SDS011;28144;49.920;18.730;2023-12-07T00:22:49;175.40;;;66.77;;
42514;SDS011;28144;49.920;18.730;2023-12-07T00:25:14;174.00;;;61.77;;
42514;SDS011;28144;49.920;18.730;2023-12-07T00:27:41;167.60;;;62.35;;
42514;SDS011;28144;49.920;18.730;2023-12-07T00:30:07;170.87;;;65.27;;
42514;SDS011;28144;49.920;18.730;2023-12-07T00:32:35;179.87;;;67.10;;
42514;SDS011;28144;49.920;18.730;2023-12-07T00:35:00;167.90;;;57.95;;
42514;SDS011;28144;49.920;18.730;2023-12-07T00:37:26;201.87;;;68.17;;
42514;SDS011;28144;49.920;18.730;2023-12-07T00:39:52;158.47;;;58.57;;
42514;SDS011;28144;49.920;18.730;2023-12-07T00:42:18;175.77;;;63.33;;
42514;SDS011;28144;49.920;18.730;2023-12-07T00:44:44;151.70;;;52.77;;
42514;SDS011;28144;49.920;18.730;2023-12-07T00:47:10;160.67;;;56.83;;
42514;SDS011;28144;49.920;18.730;2023-12-07T00:49:39;170.23;;;56.17;;
42514;SDS011;28144;49.920;18.730;2023-12-07T00:52:06;174.17;;;62.93;;
42514;SDS011;28144;49.920;18.730;2023-12-07T00:54:56;91.60;;;37.23;;
42514;SDS011;28144;49.920;18.730;2023-12-07T00:57:22;182.20;;;64.35;;
42514;SDS011;28144;49.920;18.730;2023-12-07T00:59:48;170.67;;;61.43;;
42514;SDS011;28144;49.920;18.730;2023-12-07T01:02:14;160.77;;;57.17;;
42514;SDS011;28144;49.920;18.730;2023-12-07T01:04:39;171.57;;;62.47;;
42514;SDS011;28144;49.920;18.730;2023-12-07T01:07:05;171.70;;;64.40;;
42514;SDS011;28144;49.920;18.730;2023-12-07T01:09:31;147.83;;;56.33;;
42514;SDS011;28144;49.920;18.730;2023-12-07T01:11:57;165.93;;;64.75;;
42514;SDS011;28144;49.920;18.730;2023-12-07T01:14:23;159.13;;;59.10;;
42514;SDS011;28144;49.920;18.730;2023-12-07T01:16:49;170.23;;;61.70;;
42514;SDS011;28144;49.920;18.730;2023-12-07T01:19:15;150.27;;;57.23;;
42514;SDS011;28144;49.920;18.730;2023-12-07T01:21:41;176.90;;;66.40;;
42514;SDS011;28144;49.920;18.730;2023-12-07T01:24:07;180.87;;;66.40;;
42514;SDS011;28144;49.920;18.730;2023-12-07T01:26:33;173.52;;;64.00;;
42514;SDS011;28144;49.920;18.730;2023-12-07T01:28:59;183.07;;;63.85;;
42514;SDS011;28144;49.920;18.730;2023-12-07T01:31:25;168.50;;;60.70;;
42514;SDS011;28144;49.920;18.730;2023-12-07T01:33:51;167.10;;;62.70;;
42514;SDS011;28144;49.920;18.730;2023-12-07T01:36:17;181.67;;;65.13;;
42514;SDS011;28144;49.920;18.730;2023-12-07T01:38:42;175.97;;;67.20;;
42514;SDS011;28144;49.920;18.730;2023-12-07T01:41:09;179.77;;;64.80;;
42514;SDS011;28144;49.920;18.730;2023-12-07T01:43:35;165.50;;;64.97;;
42514;SDS011;28144;49.920;18.730;2023-12-07T01:46:01;165.93;;;63.55;;
42514;SDS011;28144;49.920;18.730;2023-12-07T01:48:27;172.02;;;65.75;;
42514;SDS011;28144;49.920;18.730;2023-12-07T01:50:54;165.35;;;60.38;;
42514;SDS011;28144;49.920;18.730;2023-12-07T01:53:23;173.98;;;63.67;;
42514;SDS011;28144;49.920;18.730;2023-12-07T01:55:50;172.50;;;61.57;;
42514;SDS011;28144;49.920;18.730;2023-12-07T01:58:17;159.73;;;58.25;;
42514;SDS011;28144;49.920;18.730;2023-12-07T02:00:43;150.80;;;58.45;;
42514;SDS011;28144;49.920;18.730;2023-12-07T02:03:08;176.00;;;64.07;;
42514;SDS011;28144;49.920;18.730;2023-12-07T02:05:34;163.23;;;60.03;;
42514;SDS011;28144;49.920;18.730;2023-12-07T02:08:01;158.50;;;57.97;;
42514;SDS011;28144;49.920;18.730;2023-12-07T02:10:26;166.03;;;60.13;;
42514;SDS011;28144;49.920;18.730;2023-12-07T02:12:52;155.23;;;62.97;;
42514;SDS011;28144;49.920;18.730;2023-12-07T02:15:18;167.20;;;58.80;;
42514;SDS011;28144;49.920;18.730;2023-12-07T02:20:47;146.50;;;58.70;;
42514;SDS011;28144;49.920;18.730;2023-12-07T02:23:18;159.52;;;59.08;;
42514;SDS011;28144;49.920;18.730;2023-12-07T02:29:07;166.37;;;64.03;;
42514;SDS011;28144;49.920;18.730;2023-12-07T02:31:33;165.23;;;63.60;;
42514;SDS011;28144;49.920;18.730;2023-12-07T02:33:59;170.40;;;67.47;;
42514;SDS011;28144;49.920;18.730;2023-12-07T02:36:26;177.15;;;64.63;;
42514;SDS011;28144;49.920;18.730;2023-12-07T02:38:53;188.13;;;65.33;;
42514;SDS011;28144;49.920;18.730;2023-12-07T02:41:22;172.43;;;65.33;;
42514;SDS011;28144;49.920;18.730;2023-12-07T02:43:48;147.27;;;57.17;;
42514;SDS011;28144;49.920;18.730;2023-12-07T02:46:14;165.93;;;61.57;;
42514;SDS011;28144;49.920;18.730;2023-12-07T02:48:39;164.50;;;62.50;;
42514;SDS011;28144;49.920;18.730;2023-12-07T02:51:05;168.10;;;63.13;;
42514;SDS011;28144;49.920;18.730;2023-12-07T02:53:32;168.45;;;61.45;;
42514;SDS011;28144;49.920;18.730;2023-12-07T02:55:58;177.50;;;65.82;;
42514;SDS011;28144;49.920;18.730;2023-12-07T02:58:23;167.87;;;65.27;;
42514;SDS011;28144;49.920;18.730;2023-12-07T03:00:49;168.77;;;64.20;;
42514;SDS011;28144;49.920;18.730;2023-12-07T03:03:15;178.53;;;64.57;;
42514;SDS011;28144;49.920;18.730;2023-12-07T03:05:41;176.97;;;64.80;;
42514;SDS011;28144;49.920;18.730;2023-12-07T03:08:06;178.63;;;64.50;;
42514;SDS011;28144;49.920;18.730;2023-12-07T03:10:32;160.80;;;59.70;;
42514;SDS011;28144;49.920;18.730;2023-12-07T03:12:58;171.57;;;63.43;;
42514;SDS011;28144;49.920;18.730;2023-12-07T03:15:24;158.37;;;59.13;;
42514;SDS011;28144;49.920;18.730;2023-12-07T03:17:50;180.17;;;65.20;;
42514;SDS011;28144;49.920;18.730;2023-12-07T03:20:16;177.20;;;66.38;;
42514;SDS011;28144;49.920;18.730;2023-12-07T03:22:42;206.65;;;70.93;;
42514;SDS011;28144;49.920;18.730;2023-12-07T03:25:08;167.43;;;61.58;;
42514;SDS011;28144;49.920;18.730;2023-12-07T03:27:34;174.87;;;64.10;;
42514;SDS011;28144;49.920;18.730;2023-12-07T03:30:00;155.98;;;59.75;;
42514;SDS011;28144;49.920;18.730;2023-12-07T03:32:25;163.83;;;58.70;;
42514;SDS011;28144;49.920;18.730;2023-12-07T03:34:51;150.43;;;57.77;;
42514;SDS011;28144;49.920;18.730;2023-12-07T03:37:17;158.13;;;59.83;;
42514;SDS011;28144;49.920;18.730;2023-12-07T03:39:43;152.23;;;58.17;;
42514;SDS011;28144;49.920;18.730;2023-12-07T03:42:08;161.07;;;58.13;;
42514;SDS011;28144;49.920;18.730;2023-12-07T03:44:34;144.17;;;56.97;;
42514;SDS011;28144;49.920;18.730;2023-12-07T03:47:00;154.17;;;56.53;;
42514;SDS011;28144;49.920;18.730;2023-12-07T03:49:26;144.13;;;56.88;;
42514;SDS011;28144;49.920;18.730;2023-12-07T03:51:52;148.97;;;55.17;;
42514;SDS011;28144;49.920;18.730;2023-12-07T03:54:18;144.67;;;53.70;;
42514;SDS011;28144;49.920;18.730;2023-12-07T03:56:44;146.13;;;53.97;;
42514;SDS011;28144;49.920;18.730;2023-12-07T03:59:10;145.43;;;53.27;;
42514;SDS011;28144;49.920;18.730;2023-12-07T04:01:35;151.33;;;56.33;;
42514;SDS011;28144;49.920;18.730;2023-12-07T04:04:01;159.27;;;58.17;;
42514;SDS011;28144;49.920;18.730;2023-12-07T04:06:27;133.00;;;53.83;;
42514;SDS011;28144;49.920;18.730;2023-12-07T04:08:53;149.33;;;55.00;;
42514;SDS011;28144;49.920;18.730;2023-12-07T04:11:19;133.40;;;53.07;;
42514;SDS011;28144;49.920;18.730;2023-12-07T04:13:45;143.03;;;56.57;;
42514;SDS011;28144;49.920;18.730;2023-12-07T04:16:11;132.10;;;51.37;;
42514;SDS011;28144;49.920;18.730;2023-12-07T04:18:37;125.40;;;49.83;;
42514;SDS011;28144;49.920;18.730;2023-12-07T04:21:03;132.87;;;50.00;;
42514;SDS011;28144;49.920;18.730;2023-12-07T04:23:29;127.30;;;48.13;;
42514;SDS011;28144;49.920;18.730;2023-12-07T04:25:55;121.53;;;48.97;;
42514;SDS011;28144;49.920;18.730;2023-12-07T04:28:21;129.13;;;51.37;;
42514;SDS011;28144;49.920;18.730;2023-12-07T04:30:46;119.77;;;49.03;;
42514;SDS011;28144;49.920;18.730;2023-12-07T04:33:14;136.77;;;49.03;;
42514;SDS011;28144;49.920;18.730;2023-12-07T04:35:41;126.87;;;50.00;;
42514;SDS011;28144;49.920;18.730;2023-12-07T04:38:07;132.35;;;53.28;;
42514;SDS011;28144;49.920;18.730;2023-12-07T04:40:33;135.80;;;52.73;;
42514;SDS011;28144;49.920;18.730;2023-12-07T04:42:59;165.63;;;67.00;;
42514;SDS011;28144;49.920;18.730;2023-12-07T04:45:24;156.20;;;61.40;;
42514;SDS011;28144;49.920;18.730;2023-12-07T04:47:50;149.33;;;55.30;;
42514;SDS011;28144;49.920;18.730;2023-12-07T04:50:16;149.83;;;61.57;;
42514;SDS011;28144;49.920;18.730;2023-12-07T04:52:42;143.85;;;56.47;;
42514;SDS011;28144;49.920;18.730;2023-12-07T04:55:08;132.57;;;52.27;;
42514;SDS011;28144;49.920;18.730;2023-12-07T04:57:34;132.90;;;52.83;;
42514;SDS011;28144;49.920;18.730;2023-12-07T05:00:01;113.35;;;48.13;;
42514;SDS011;28144;49.920;18.730;2023-12-07T05:02:32;115.13;;;46.63;;
42514;SDS011;28144;49.920;18.730;2023-12-07T05:04:58;126.10;;;46.55;;
42514;SDS011;28144;49.920;18.730;2023-12-07T05:07:24;126.97;;;48.73;;
42514;SDS011;28144;49.920;18.730;2023-12-07T05:09:50;121.90;;;49.43;;
42514;SDS011;28144;49.920;18.730;2023-12-07T05:12:19;132.10;;;50.60;;
42514;SDS011;28144;49.920;18.730;2023-12-07T05:14:44;130.37;;;50.23;;
42514;SDS011;28144;49.920;18.730;2023-12-07T05:17:10;129.17;;;51.10;;
42514;SDS011;28144;49.920;18.730;2023-12-07T05:19:36;122.13;;;50.30;;
42514;SDS011;28144;49.920;18.730;2023-12-07T05:22:02;129.10;;;50.43;;
42514;SDS011;28144;49.920;18.730;2023-12-07T05:24:28;132.07;;;51.80;;
42514;SDS011;28144;49.920;18.730;2023-12-07T05:26:55;135.57;;;51.10;;
42514;SDS011;28144;49.920;18.730;2023-12-07T05:29:21;128.60;;;54.03;;
42514;SDS011;28144;49.920;18.730;2023-12-07T05:31:50;127.53;;;50.40;;
42514;SDS011;28144;49.920;18.730;2023-12-07T05:34:16;133.30;;;54.17;;
42514;SDS011;28144;49.920;18.730;2023-12-07T05:39:08;139.57;;;52.77;;
42514;SDS011;28144;49.920;18.730;2023-12-07T05:41:38;136.10;;;55.00;;
42514;SDS011;28144;49.920;18.730;2023-12-07T05:44:04;134.90;;;54.33;;
42514;SDS011;28144;49.920;18.730;2023-12-07T05:46:30;141.15;;;54.95;;
42514;SDS011;28144;49.920;18.730;2023-12-07T05:48:56;144.10;;;57.63;;
42514;SDS011;28144;49.920;18.730;2023-12-07T05:51:23;148.50;;;57.27;;
42514;SDS011;28144;49.920;18.730;2023-12-07T05:53:49;151.17;;;60.53;;
42514;SDS011;28144;49.920;18.730;2023-12-07T05:56:19;140.60;;;56.70;;
42514;SDS011;28144;49.920;18.730;2023-12-07T05:58:48;142.40;;;59.40;;
42514;SDS011;28144;49.920;18.730;2023-12-07T06:01:16;157.77;;;60.13;;
42514;SDS011;28144;49.920;18.730;2023-12-07T06:03:43;151.30;;;62.77;;
42514;SDS011;28144;49.920;18.730;2023-12-07T06:06:12;162.20;;;63.00;;
42514;SDS011;28144;49.920;18.730;2023-12-07T06:08:38;159.00;;;63.07;;
42514;SDS011;28144;49.920;18.730;2023-12-07T06:11:05;156.63;;;62.40;;
42514;SDS011;28144;49.920;18.730;2023-12-07T06:13:31;151.30;;;61.10;;
42514;SDS011;28144;49.920;18.730;2023-12-07T06:15:57;143.37;;;58.63;;
42514;SDS011;28144;49.920;18.730;2023-12-07T06:18:22;162.70;;;60.63;;
42514;SDS011;28144;49.920;18.730;2023-12-07T06:20:49;145.32;;;63.47;;
42514;SDS011;28144;49.920;18.730;2023-12-07T06:23:14;155.60;;;63.23;;
42514;SDS011;28144;49.920;18.730;2023-12-07T06:25:40;156.10;;;62.37;;
42514;SDS011;28144;49.920;18.730;2023-12-07T06:28:07;174.02;;;64.32;;
42514;SDS011;28144;49.920;18.730;2023-12-07T06:30:33;154.23;;;60.67;;
42514;SDS011;28144;49.920;18.730;2023-12-07T06:32:59;155.77;;;62.30;;
42514;SDS011;28144;49.920;18.730;2023-12-07T06:35:24;153.70;;;61.07;;
42514;SDS011;28144;49.920;18.730;2023-12-07T06:37:50;145.10;;;58.92;;
42514;SDS011;28144;49.920;18.730;2023-12-07T06:40:16;159.10;;;62.73;;
42514;SDS011;28144;49.920;18.730;2023-12-07T06:42:42;151.93;;;60.22;;
42514;SDS011;28144;49.920;18.730;2023-12-07T06:45:08;159.53;;;61.43;;
42514;SDS011;28144;49.920;18.730;2023-12-07T06:47:39;149.23;;;57.40;;
42514;SDS011;28144;49.920;18.730;2023-12-07T06:50:07;162.40;;;62.97;;
42514;SDS011;28144;49.920;18.730;2023-12-07T06:52:35;169.67;;;63.20;;
42514;SDS011;28144;49.920;18.730;2023-12-07T06:55:04;161.90;;;64.67;;
42514;SDS011;28144;49.920;18.730;2023-12-07T06:57:31;174.10;;;63.72;;
42514;SDS011;28144;49.920;18.730;2023-12-07T06:59:57;169.55;;;65.63;;
42514;SDS011;28144;49.920;18.730;2023-12-07T07:02:23;163.83;;;66.23;;
42514;SDS011;28144;49.920;18.730;2023-12-07T07:04:49;154.57;;;62.97;;
42514;SDS011;28144;49.920;18.730;2023-12-07T07:07:15;149.00;;;58.97;;
42514;SDS011;28144;49.920;18.730;2023-12-07T07:09:41;148.68;;;59.35;;
42514;SDS011;28144;49.920;18.730;2023-12-07T07:12:07;161.98;;;60.42;;
42514;SDS011;28144;49.920;18.730;2023-12-07T07:14:33;150.75;;;59.92;;
42514;SDS011;28144;49.920;18.730;2023-12-07T07:16:59;155.43;;;59.38;;
42514;SDS011;28144;49.920;18.730;2023-12-07T07:19:25;154.23;;;58.97;;
42514;SDS011;28144;49.920;18.730;2023-12-07T07:21:51;147.80;;;59.13;;
42514;SDS011;28144;49.920;18.730;2023-12-07T07:24:17;156.50;;;61.40;;
42514;SDS011;28144;49.920;18.730;2023-12-07T07:26:43;145.53;;;58.70;;
42514;SDS011;28144;49.920;18.730;2023-12-07T07:29:08;148.80;;;59.20;;
42514;SDS011;28144;49.920;18.730;2023-12-07T07:31:34;142.47;;;57.77;;
42514;SDS011;28144;49.920;18.730;2023-12-07T07:36:27;144.65;;;54.22;;
42514;SDS011;28144;49.920;18.730;2023-12-07T07:38:53;146.17;;;58.07;;
42514;SDS011;28144;49.920;18.730;2023-12-07T07:45:00;174.57;;;61.23;;
42514;SDS011;28144;49.920;18.730;2023-12-07T07:47:25;151.43;;;59.23;;
42514;SDS011;28144;49.920;18.730;2023-12-07T07:49:51;148.23;;;59.23;;
42514;SDS011;28144;49.920;18.730;2023-12-07T07:52:17;157.67;;;63.43;;
42514;SDS011;28144;49.920;18.730;2023-12-07T07:54:43;163.83;;;64.57;;
42514;SDS011;28144;49.920;18.730;2023-12-07T07:57:09;156.10;;;62.95;;
42514;SDS011;28144;49.920;18.730;2023-12-07T07:59:34;173.00;;;66.47;;
42514;SDS011;28144;49.920;18.730;2023-12-07T08:02:00;169.60;;;65.73;;
42514;SDS011;28144;49.920;18.730;2023-12-07T08:04:26;168.93;;;66.03;;
42514;SDS011;28144;49.920;18.730;2023-12-07T08:06:52;160.67;;;64.30;;
42514;SDS011;28144;49.920;18.730;2023-12-07T08:09:17;163.37;;;64.87;;
42514;SDS011;28144;49.920;18.730;2023-12-07T08:11:43;167.97;;;66.30;;
42514;SDS011;28144;49.920;18.730;2023-12-07T08:14:09;172.43;;;65.10;;
42514;SDS011;28144;49.920;18.730;2023-12-07T08:16:35;157.27;;;62.37;;
42514;SDS011;28144;49.920;18.730;2023-12-07T08:19:00;170.97;;;64.93;;
42514;SDS011;28144;49.920;18.730;2023-12-07T08:21:27;167.90;;;66.88;;
42514;SDS011;28144;49.920;18.730;2023-12-07T08:23:54;161.00;;;66.47;;
42514;SDS011;28144;49.920;18.730;2023-12-07T08:26:21;169.43;;;67.43;;
42514;SDS011;28144;49.920;18.730;2023-12-07T08:28:47;181.35;;;69.30;;
42514;SDS011;28144;49.920;18.730;2023-12-07T08:31:13;173.25;;;67.97;;
42514;SDS011;28144;49.920;18.730;2023-12-07T08:33:39;184.10;;;71.27;;
42514;SDS011;28144;49.920;18.730;2023-12-07T08:36:05;184.32;;;70.88;;
42514;SDS011;28144;49.920;18.730;2023-12-07T08:38:31;188.93;;;72.70;;
42514;SDS011;28144;49.920;18.730;2023-12-07T08:40:57;186.73;;;70.63;;
42514;SDS011;28144;49.920;18.730;2023-12-07T08:43:24;186.60;;;72.83;;
42514;SDS011;28144;49.920;18.730;2023-12-07T08:45:52;192.32;;;73.90;;
42514;SDS011;28144;49.920;18.730;2023-12-07T08:48:21;190.87;;;73.00;;
42514;SDS011;28144;49.920;18.730;2023-12-07T08:50:47;196.17;;;73.10;;
42514;SDS011;28144;49.920;18.730;2023-12-07T08:53:13;191.17;;;73.03;;
42514;SDS011;28144;49.920;18.730;2023-12-07T08:55:39;196.80;;;75.50;;
42514;SDS011;28144;49.920;18.730;2023-12-07T08:58:05;192.77;;;73.90;;
42514;SDS011;28144;49.920;18.730;2023-12-07T09:00:32;171.00;;;68.90;;
42514;SDS011;28144;49.920;18.730;2023-12-07T09:02:58;191.90;;;73.53;;
42514;SDS011;28144;49.920;18.730;2023-12-07T09:05:25;190.55;;;73.88;;
42514;SDS011;28144;49.920;18.730;2023-12-07T09:07:51;202.13;;;76.47;;
42514;SDS011;28144;49.920;18.730;2023-12-07T09:10:18;182.85;;;74.30;;
42514;SDS011;28144;49.920;18.730;2023-12-07T09:12:44;189.82;;;76.03;;
42514;SDS011;28144;49.920;18.730;2023-12-07T09:15:11;200.85;;;77.05;;
42514;SDS011;28144;49.920;18.730;2023-12-07T09:17:39;194.80;;;76.40;;
42514;SDS011;28144;49.920;18.730;2023-12-07T09:20:07;198.43;;;78.70;;
42514;SDS011;28144;49.920;18.730;2023-12-07T09:22:40;191.23;;;78.13;;
42514;SDS011;28144;49.920;18.730;2023-12-07T09:25:08;193.97;;;78.60;;
42514;SDS011;28144;49.920;18.730;2023-12-07T09:31:14;192.53;;;74.90;;
42514;SDS011;28144;49.920;18.730;2023-12-07T09:33:42;195.77;;;79.77;;
42514;SDS011;28144;49.920;18.730;2023-12-07T09:36:07;199.50;;;80.07;;
42514;SDS011;28144;49.920;18.730;2023-12-07T09:38:37;191.98;;;77.20;;
42514;SDS011;28144;49.920;18.730;2023-12-07T09:41:03;202.13;;;78.90;;
42514;SDS011;28144;49.920;18.730;2023-12-07T09:43:29;202.75;;;82.03;;
42514;SDS011;28144;49.920;18.730;2023-12-07T09:45:55;197.47;;;81.03;;
42514;SDS011;28144;49.920;18.730;2023-12-07T09:48:22;205.27;;;79.30;;
42514;SDS011;28144;49.920;18.730;2023-12-07T09:50:48;196.45;;;81.25;;
42514;SDS011;28144;49.920;18.730;2023-12-07T09:53:14;212.83;;;82.77;;
42514;SDS011;28144;49.920;18.730;2023-12-07T09:55:40;202.60;;;81.43;;
42514;SDS011;28144;49.920;18.730;2023-12-07T09:58:06;213.23;;;83.70;;
42514;SDS011;28144;49.920;18.730;2023-12-07T10:00:31;218.43;;;85.40;;
42514;SDS011;28144;49.920;18.730;2023-12-07T10:05:24;202.20;;;79.73;;
42514;SDS011;28144;49.920;18.730;2023-12-07T10:07:50;204.70;;;81.23;;
42514;SDS011;28144;49.920;18.730;2023-12-07T10:10:16;207.37;;;82.93;;
42514;SDS011;28144;49.920;18.730;2023-12-07T10:12:53;207.13;;;79.97;;
42514;SDS011;28144;49.920;18.730;2023-12-07T10:15:28;200.83;;;78.77;;
42514;SDS011;28144;49.920;18.730;2023-12-07T10:17:59;206.83;;;79.93;;
42514;SDS011;28144;49.920;18.730;2023-12-07T10:20:26;214.97;;;81.43;;
42514;SDS011;28144;49.920;18.730;2023-12-07T10:23:03;207.73;;;82.70;;
42514;SDS011;28144;49.920;18.730;2023-12-07T10:25:39;198.03;;;81.63;;
42514;SDS011;28144;49.920;18.730;2023-12-07T10:28:07;200.80;;;82.03;;
42514;SDS011;28144;49.920;18.730;2023-12-07T10:30:33;200.75;;;83.82;;
42514;SDS011;28144;49.920;18.730;2023-12-07T10:33:02;195.85;;;82.05;;
42514;SDS011;28144;49.920;18.730;2023-12-07T10:35:29;207.10;;;82.67;;
42514;SDS011;28144;49.920;18.730;2023-12-07T10:37:54;202.73;;;80.70;;
42514;SDS011;28144;49.920;18.730;2023-12-07T10:40:20;205.37;;;84.00;;
42514;SDS011;28144;49.920;18.730;2023-12-07T10:42:49;208.67;;;83.13;;
42514;SDS011;28144;49.920;18.730;2023-12-07T10:45:18;201.73;;;81.63;;
42514;SDS011;28144;49.920;18.730;2023-12-07T10:47:45;201.97;;;81.50;;
42514;SDS011;28144;49.920;18.730;2023-12-07T10:50:11;214.27;;;82.00;;
42514;SDS011;28144;49.920;18.730;2023-12-07T10:52:39;209.80;;;84.73;;
42514;SDS011;28144;49.920;18.730;2023-12-07T10:55:13;216.13;;;85.40;;
42514;SDS011;28144;49.920;18.730;2023-12-07T10:57:42;184.77;;;78.03;;
42514;SDS011;28144;49.920;18.730;2023-12-07T11:02:35;180.35;;;75.90;;
42514;SDS011;28144;49.920;18.730;2023-12-07T11:05:02;184.77;;;78.80;;
42514;SDS011;28144;49.920;18.730;2023-12-07T11:07:30;187.73;;;80.07;;
42514;SDS011;28144;49.920;18.730;2023-12-07T11:10:05;200.17;;;78.23;;
42514;SDS011;28144;49.920;18.730;2023-12-07T11:12:49;180.57;;;76.80;;
42514;SDS011;28144;49.920;18.730;2023-12-07T11:15:18;189.63;;;76.40;;
42514;SDS011;28144;49.920;18.730;2023-12-07T11:17:51;181.82;;;75.32;;
42514;SDS011;28144;49.920;18.730;2023-12-07T11:20:19;176.40;;;75.50;;
42514;SDS011;28144;49.920;18.730;2023-12-07T11:22:46;191.97;;;80.60;;
42514;SDS011;28144;49.920;18.730;2023-12-07T11:25:14;198.63;;;81.03;;
42514;SDS011;28144;49.920;18.730;2023-12-07T11:27:40;197.45;;;81.28;;
42514;SDS011;28144;49.920;18.730;2023-12-07T11:30:06;197.07;;;83.20;;
42514;SDS011;28144;49.920;18.730;2023-12-07T11:32:33;199.05;;;81.43;;
42514;SDS011;28144;49.920;18.730;2023-12-07T11:35:02;206.03;;;80.93;;
42514;SDS011;28144;49.920;18.730;2023-12-07T11:37:59;208.57;;;86.30;;
42514;SDS011;28144;49.920;18.730;2023-12-07T11:43:44;211.77;;;83.67;;
42514;SDS011;28144;49.920;18.730;2023-12-07T11:46:11;211.53;;;83.83;;
42514;SDS011;28144;49.920;18.730;2023-12-07T11:48:38;196.93;;;80.97;;
42514;SDS011;28144;49.920;18.730;2023-12-07T11:51:04;209.67;;;82.67;;
42514;SDS011;28144;49.920;18.730;2023-12-07T11:53:31;200.33;;;80.27;;
42514;SDS011;28144;49.920;18.730;2023-12-07T11:55:58;198.32;;;78.95;;
42514;SDS011;28144;49.920;18.730;2023-12-07T11:58:25;196.90;;;78.13;;
42514;SDS011;28144;49.920;18.730;2023-12-07T12:03:17;193.50;;;75.75;;
42514;SDS011;28144;49.920;18.730;2023-12-07T12:08:20;185.63;;;74.33;;
42514;SDS011;28144;49.920;18.730;2023-12-07T12:10:46;197.02;;;79.35;;
42514;SDS011;28144;49.920;18.730;2023-12-07T12:13:14;193.67;;;78.30;;
42514;SDS011;28144;49.920;18.730;2023-12-07T12:15:40;199.37;;;77.10;;
42514;SDS011;28144;49.920;18.730;2023-12-07T12:18:06;188.77;;;73.87;;
42514;SDS011;28144;49.920;18.730;2023-12-07T12:22:58;174.10;;;73.40;;
42514;SDS011;28144;49.920;18.730;2023-12-07T12:25:26;185.77;;;75.63;;
42514;SDS011;28144;49.920;18.730;2023-12-07T12:28:01;193.30;;;76.97;;
42514;SDS011;28144;49.920;18.730;2023-12-07T12:30:29;192.63;;;76.53;;
42514;SDS011;28144;49.920;18.730;2023-12-07T12:32:55;185.98;;;75.47;;
42514;SDS011;28144;49.920;18.730;2023-12-07T12:35:21;194.70;;;78.43;;
42514;SDS011;28144;49.920;18.730;2023-12-07T12:37:48;201.43;;;79.88;;
42514;SDS011;28144;49.920;18.730;2023-12-07T12:40:18;192.32;;;75.13;;
42514;SDS011;28144;49.920;18.730;2023-12-07T12:42:49;174.40;;;72.27;;
42514;SDS011;28144;49.920;18.730;2023-12-07T12:45:16;179.23;;;73.17;;
42514;SDS011;28144;49.920;18.730;2023-12-07T12:47:46;192.33;;;76.00;;
42514;SDS011;28144;49.920;18.730;2023-12-07T12:50:31;182.17;;;74.47;;
42514;SDS011;28144;49.920;18.730;2023-12-07T12:52:59;183.80;;;73.88;;
42514;SDS011;28144;49.920;18.730;2023-12-07T12:55:25;195.48;;;76.53;;
42514;SDS011;28144;49.920;18.730;2023-12-07T12:57:51;206.93;;;80.72;;
42514;SDS011;28144;49.920;18.730;2023-12-07T13:00:18;201.55;;;79.28;;
42514;SDS011;28144;49.920;18.730;2023-12-07T13:02:44;195.02;;;80.28;;
42514;SDS011;28144;49.920;18.730;2023-12-07T13:05:10;209.73;;;81.60;;
42514;SDS011;28144;49.920;18.730;2023-12-07T13:07:36;202.57;;;81.17;;
42514;SDS011;28144;49.920;18.730;2023-12-07T13:10:02;206.10;;;79.88;;
42514;SDS011;28144;49.920;18.730;2023-12-07T13:12:28;205.60;;;79.07;;
42514;SDS011;28144;49.920;18.730;2023-12-07T13:14:55;192.60;;;79.07;;
42514;SDS011;28144;49.920;18.730;2023-12-07T13:17:21;202.33;;;79.13;;
42514;SDS011;28144;49.920;18.730;2023-12-07T13:19:47;191.63;;;77.87;;
42514;SDS011;28144;49.920;18.730;2023-12-07T13:22:13;191.20;;;76.17;;
42514;SDS011;28144;49.920;18.730;2023-12-07T13:24:39;194.80;;;77.77;;
42514;SDS011;28144;49.920;18.730;2023-12-07T13:30:33;177.30;;;70.57;;
42514;SDS011;28144;49.920;18.730;2023-12-07T13:33:01;179.87;;;74.90;;
42514;SDS011;28144;49.920;18.730;2023-12-07T13:35:29;189.50;;;76.50;;
42514;SDS011;28144;49.920;18.730;2023-12-07T13:38:01;197.40;;;79.37;;
42514;SDS011;28144;49.920;18.730;2023-12-07T13:40:29;184.97;;;77.60;;
42514;SDS011;28144;49.920;18.730;2023-12-07T13:42:55;185.25;;;80.13;;
42514;SDS011;28144;49.920;18.730;2023-12-07T13:45:21;183.40;;;76.82;;
42514;SDS011;28144;49.920;18.730;2023-12-07T13:47:47;198.77;;;81.57;;
42514;SDS011;28144;49.920;18.730;2023-12-07T13:50:13;193.70;;;78.82;;
42514;SDS011;28144;49.920;18.730;2023-12-07T13:52:39;199.57;;;79.13;;
42514;SDS011;28144;49.920;18.730;2023-12-07T13:55:05;195.80;;;79.70;;
42514;SDS011;28144;49.920;18.730;2023-12-07T13:57:31;204.90;;;80.63;;
42514;SDS011;28144;49.920;18.730;2023-12-07T13:59:57;204.80;;;81.83;;
42514;SDS011;28144;49.920;18.730;2023-12-07T14:02:22;213.50;;;81.30;;
42514;SDS011;28144;49.920;18.730;2023-12-07T14:04:49;203.85;;;82.88;;
42514;SDS011;28144;49.920;18.730;2023-12-07T14:07:19;204.75;;;80.60;;
42514;SDS011;28144;49.920;18.730;2023-12-07T14:09:47;198.07;;;83.77;;
42514;SDS011;28144;49.920;18.730;2023-12-07T14:12:14;210.17;;;82.23;;
42514;SDS011;28144;49.920;18.730;2023-12-07T14:14:40;219.05;;;84.25;;
42514;SDS011;28144;49.920;18.730;2023-12-07T14:17:10;216.27;;;87.53;;
42514;SDS011;28144;49.920;18.730;2023-12-07T14:19:37;210.18;;;84.15;;
42514;SDS011;28144;49.920;18.730;2023-12-07T14:22:04;219.57;;;85.77;;
42514;SDS011;28144;49.920;18.730;2023-12-07T14:24:31;242.82;;;91.72;;
42514;SDS011;28144;49.920;18.730;2023-12-07T14:26:57;216.07;;;86.70;;
42514;SDS011;28144;49.920;18.730;2023-12-07T14:29:23;227.88;;;89.45;;
42514;SDS011;28144;49.920;18.730;2023-12-07T14:31:50;214.43;;;88.57;;